Time;durP1;ratioP1;P1;durP2;ratioP2;P2;SDS_P1;SDS_P2;PMS_P1;PMS_P2;Temp;Humidity;BMP_temperature;BMP_pressure;BME280_temperature;BME280_humidity;BME280_pressure;Samples;Min_cycle;Max_cycle;Signal;HPM_P1;HPM_P2
2023/07/15 00:00:52;;;;;;;1.23;0.40;;;15.20;99.90;;;;;;5049701;28;20052;-73
2023/07/15 00:03:18;;;;;;;1.27;0.40;;;15.20;99.90;;;;;;5049417;28;20028;-73
2023/07/15 00:05:45;;;;;;;0.85;0.43;;;15.20;99.90;;;;;;5050121;28;20025;-72
2023/07/15 00:08:11;;;;;;;2.53;0.40;;;15.20;99.90;;;;;;5049684;28;20094;-75
2023/07/15 00:10:39;;;;;;;3.03;0.45;;;15.20;99.90;;;;;;5049634;28;20037;-73
2023/07/15 00:13:12;;;;;;;1.35;0.40;;;15.20;99.90;;;;;;5049541;28;20029;-72
2023/07/15 00:15:40;;;;;;;0.38;0.38;;;15.20;99.90;;;;;;5048378;28;20362;-73
2023/07/15 00:18:06;;;;;;;0.30;0.28;;;15.20;99.90;;;;;;5050226;28;20029;-72
2023/07/15 00:20:35;;;;;;;2.75;0.50;;;15.20;99.90;;;;;;5049395;28;20552;-73
2023/07/15 00:23:01;;;;;;;0.93;0.25;;;15.20;99.90;;;;;;5049693;28;20078;-73
2023/07/15 00:25:27;;;;;;;3.50;0.22;;;15.20;99.90;;;;;;5047852;28;20033;-72
2023/07/15 00:27:53;;;;;;;0.75;0.40;;;15.30;99.90;;;;;;5051724;28;20053;-73
2023/07/15 00:30:21;;;;;;;1.52;0.40;;;15.30;99.90;;;;;;5053094;28;20116;-73
2023/07/15 00:32:50;;;;;;;0.55;0.40;;;15.20;99.90;;;;;;5052531;28;20033;-73
2023/07/15 00:35:20;;;;;;;1.13;0.50;;;15.20;99.90;;;;;;5053160;28;20036;-74
2023/07/15 00:37:47;;;;;;;1.70;0.47;;;15.20;99.90;;;;;;5052197;28;20415;-73
2023/07/15 00:40:13;;;;;;;1.40;0.47;;;15.20;99.90;;;;;;5053698;28;20028;-73
2023/07/15 00:42:48;;;;;;;0.95;0.50;;;15.10;99.90;;;;;;5053756;28;20025;-73
2023/07/15 00:45:13;;;;;;;1.55;0.40;;;15.10;99.90;;;;;;5053331;28;20032;-75
2023/07/15 00:48:04;;;;;;;0.30;0.22;;;15.10;99.90;;;;;;5051797;28;20040;-72
2023/07/15 00:50:30;;;;;;;2.15;0.40;;;15.10;99.90;;;;;;5052111;28;20041;-73
2023/07/15 00:52:56;;;;;;;0.55;0.30;;;15.10;99.90;;;;;;5053197;28;20048;-72
2023/07/15 00:55:22;;;;;;;1.10;0.50;;;15.20;99.90;;;;;;5052549;28;20470;-73
2023/07/15 00:57:48;;;;;;;0.40;0.40;;;15.10;99.90;;;;;;5052771;28;20435;-72
2023/07/15 01:00:15;;;;;;;4.13;0.82;;;15.20;99.90;;;;;;5052927;28;20033;-74
2023/07/15 01:02:42;;;;;;;0.90;0.40;;;15.10;99.90;;;;;;5052696;28;20037;-72
2023/07/15 01:05:10;;;;;;;1.40;0.32;;;15.20;99.90;;;;;;5052961;28;20033;-73
2023/07/15 01:07:36;;;;;;;1.75;0.50;;;15.20;99.90;;;;;;5052379;28;20024;-72
2023/07/15 01:10:02;;;;;;;0.50;0.50;;;15.20;99.90;;;;;;5052606;28;20029;-73
2023/07/15 01:12:28;;;;;;;0.75;0.40;;;15.10;99.90;;;;;;5052360;28;20052;-73
2023/07/15 01:14:54;;;;;;;0.35;0.35;;;15.20;99.90;;;;;;5052976;28;20439;-72
2023/07/15 01:17:20;;;;;;;0.82;0.40;;;15.20;99.90;;;;;;5052376;28;20505;-72
2023/07/15 01:19:46;;;;;;;2.03;0.50;;;15.10;99.90;;;;;;5052786;28;20061;-72
2023/07/15 01:22:13;;;;;;;1.30;0.50;;;15.20;99.90;;;;;;5052302;28;20033;-71
2023/07/15 01:24:39;;;;;;;0.30;0.30;;;15.20;99.90;;;;;;5050861;28;20350;-71
2023/07/15 01:27:08;;;;;;;0.88;0.65;;;15.20;99.90;;;;;;5052217;28;20021;-71
2023/07/15 01:29:34;;;;;;;1.83;0.40;;;15.20;99.90;;;;;;5052171;28;20390;-71
2023/07/15 01:32:00;;;;;;;1.02;0.52;;;15.10;99.90;;;;;;5052261;28;20037;-71
2023/07/15 01:34:25;;;;;;;1.13;0.40;;;15.10;99.90;;;;;;5051755;28;20021;-71
2023/07/15 01:36:51;;;;;;;0.40;0.40;;;15.10;99.90;;;;;;5052735;28;20076;-71
2023/07/15 01:39:17;;;;;;;3.47;0.50;;;15.20;99.90;;;;;;5051524;28;20028;-73
2023/07/15 01:41:46;;;;;;;1.05;0.52;;;15.10;99.90;;;;;;5051794;28;20029;-72
2023/07/15 01:44:12;;;;;;;0.32;0.32;;;15.10;99.90;;;;;;5052570;28;20104;-71
2023/07/15 01:46:39;;;;;;;0.45;0.45;;;15.10;99.90;;;;;;5051598;28;20109;-71
2023/07/15 01:49:08;;;;;;;1.27;0.38;;;15.10;99.90;;;;;;5051577;28;20031;-71
2023/07/15 01:51:37;;;;;;;1.02;0.47;;;15.10;99.90;;;;;;5051750;28;20048;-71
2023/07/15 01:54:03;;;;;;;0.98;0.60;;;15.10;99.90;;;;;;5052282;28;20025;-71
2023/07/15 01:56:30;;;;;;;2.03;0.70;;;15.10;99.90;;;;;;5051422;28;20033;-72
2023/07/15 01:58:55;;;;;;;1.02;0.40;;;15.10;99.90;;;;;;5051834;28;20033;-71
2023/07/15 02:01:22;;;;;;;1.65;0.43;;;15.10;99.90;;;;;;5051820;28;20036;-73
2023/07/15 02:03:48;;;;;;;0.43;0.43;;;15.10;99.90;;;;;;5052374;28;20032;-71
2023/07/15 02:06:15;;;;;;;0.50;0.50;;;15.00;99.90;;;;;;5051932;28;20020;-71
2023/07/15 02:08:41;;;;;;;1.13;0.40;;;15.00;99.90;;;;;;5051595;28;20036;-72
2023/07/15 02:11:07;;;;;;;2.40;0.50;;;15.00;99.90;;;;;;5051802;28;20040;-72
2023/07/15 02:13:33;;;;;;;0.52;0.52;;;15.00;99.90;;;;;;5051659;28;20029;-72
2023/07/15 02:15:59;;;;;;;1.40;0.52;;;15.00;99.90;;;;;;5052077;28;20100;-71
2023/07/15 02:18:25;;;;;;;1.55;0.60;;;15.00;99.90;;;;;;5051474;28;20151;-72
2023/07/15 02:20:52;;;;;;;1.60;0.90;;;14.90;99.90;;;;;;5052098;28;20036;-71
2023/07/15 02:23:17;;;;;;;4.38;0.80;;;15.00;99.90;;;;;;5051518;28;20028;-71
2023/07/15 02:25:43;;;;;;;1.27;0.60;;;14.90;99.90;;;;;;5051050;28;20024;-72
2023/07/15 02:28:09;;;;;;;1.90;0.57;;;14.90;99.90;;;;;;5051850;28;20432;-72
2023/07/15 02:30:37;;;;;;;0.65;0.63;;;15.00;99.90;;;;;;5051239;28;20029;-72
2023/07/15 02:33:06;;;;;;;1.25;0.90;;;15.00;99.90;;;;;;5051398;28;20040;-71
2023/07/15 02:35:33;;;;;;;1.30;0.90;;;15.00;99.90;;;;;;5050803;28;20041;-71
2023/07/15 02:37:59;;;;;;;1.08;0.63;;;15.00;99.90;;;;;;5051341;28;20413;-71
2023/07/15 02:40:25;;;;;;;1.35;0.90;;;15.00;99.90;;;;;;5050746;28;20024;-72
2023/07/15 02:42:52;;;;;;;3.55;0.73;;;15.00;99.90;;;;;;5051332;28;20439;-71
2023/07/15 02:45:18;;;;;;;1.48;0.95;;;15.00;99.90;;;;;;5051243;28;20374;-71
2023/07/15 02:47:44;;;;;;;1.88;0.70;;;15.00;99.90;;;;;;5050961;28;20083;-71
2023/07/15 02:50:10;;;;;;;2.85;0.82;;;14.90;99.90;;;;;;5050205;28;20036;-71
2023/07/15 02:52:37;;;;;;;0.80;0.80;;;14.90;99.90;;;;;;5050415;28;20388;-72
2023/07/15 02:55:05;;;;;;;1.70;0.80;;;14.90;99.90;;;;;;5051029;28;20028;-71
2023/07/15 02:57:32;;;;;;;1.00;0.90;;;14.90;99.90;;;;;;5050277;28;20025;-71
2023/07/15 02:59:57;;;;;;;4.93;0.73;;;14.90;99.90;;;;;;5051359;28;20072;-71
2023/07/15 03:02:24;;;;;;;1.33;0.80;;;14.80;99.90;;;;;;5050583;28;20115;-74
2023/07/15 03:04:50;;;;;;;1.08;0.73;;;14.90;99.90;;;;;;5050855;28;20025;-71
2023/07/15 03:07:17;;;;;;;1.40;0.65;;;14.90;99.90;;;;;;5050708;28;20017;-71
2023/07/15 03:09:43;;;;;;;2.60;0.63;;;14.80;99.90;;;;;;5050329;28;20037;-71
2023/07/15 03:12:09;;;;;;;1.95;0.52;;;14.70;99.90;;;;;;5050666;28;20076;-71
2023/07/15 03:14:35;;;;;;;2.25;0.93;;;14.70;99.90;;;;;;5050342;28;20053;-72
2023/07/15 03:17:02;;;;;;;4.30;0.80;;;14.70;99.90;;;;;;5049352;28;20025;-72
2023/07/15 03:19:28;;;;;;;2.10;0.60;;;14.70;99.90;;;;;;5050156;28;20059;-72
2023/07/15 03:21:53;;;;;;;2.25;0.75;;;14.70;99.90;;;;;;5050846;28;20454;-71
2023/07/15 03:24:21;;;;;;;2.90;1.02;;;14.70;99.90;;;;;;5050860;28;20032;-72
2023/07/15 03:26:46;;;;;;;1.77;0.75;;;14.70;99.90;;;;;;5049951;28;20036;-72
2023/07/15 03:29:12;;;;;;;1.45;0.82;;;14.70;99.90;;;;;;5050294;28;20049;-72
2023/07/15 03:31:38;;;;;;;0.88;0.60;;;14.60;99.90;;;;;;5049916;28;20350;-72
2023/07/15 03:34:03;;;;;;;1.90;1.05;;;14.70;99.90;;;;;;5050441;28;20021;-71
2023/07/15 03:36:29;;;;;;;2.22;0.70;;;14.60;99.90;;;;;;5048576;28;20029;-72
2023/07/15 03:38:55;;;;;;;0.82;0.57;;;14.60;99.90;;;;;;5050559;28;20033;-72
2023/07/15 03:41:20;;;;;;;3.28;0.73;;;14.70;99.90;;;;;;5050880;28;20032;-71
2023/07/15 03:43:46;;;;;;;2.20;0.82;;;14.60;99.90;;;;;;5049908;28;20540;-72
2023/07/15 03:46:12;;;;;;;1.13;0.93;;;14.60;99.90;;;;;;5050360;28;20070;-72
2023/07/15 03:48:39;;;;;;;1.67;0.60;;;14.60;99.90;;;;;;5049459;28;20032;-72
2023/07/15 03:51:08;;;;;;;2.17;0.90;;;14.60;99.90;;;;;;5049915;28;20029;-72
2023/07/15 03:53:34;;;;;;;3.20;0.70;;;14.60;99.90;;;;;;5048137;28;20034;-72
2023/07/15 03:56:00;;;;;;;1.25;1.08;;;14.60;99.90;;;;;;5049709;28;20408;-71
2023/07/15 03:58:26;;;;;;;1.35;0.65;;;14.60;99.90;;;;;;5050127;28;20047;-74
2023/07/15 04:00:51;;;;;;;1.08;0.85;;;14.60;99.90;;;;;;5049892;28;20029;-72
2023/07/15 04:03:18;;;;;;;1.67;0.73;;;14.60;99.90;;;;;;5054203;28;20029;-72
2023/07/15 04:05:44;;;;;;;1.77;0.77;;;14.60;99.90;;;;;;5054051;28;20048;-72
2023/07/15 04:08:10;;;;;;;0.60;0.60;;;14.60;99.90;;;;;;5053938;28;20462;-71
2023/07/15 04:10:36;;;;;;;3.40;0.60;;;14.70;99.90;;;;;;5053442;28;20462;-72
2023/07/15 04:13:02;;;;;;;2.95;0.70;;;14.70;99.90;;;;;;5053905;28;20121;-72
2023/07/15 04:15:30;;;;;;;1.58;0.80;;;14.70;99.90;;;;;;5054071;28;20094;-74
2023/07/15 04:17:55;;;;;;;2.92;0.60;;;14.80;99.90;;;;;;5053081;28;20388;-72
2023/07/15 04:20:21;;;;;;;1.73;0.57;;;14.70;99.90;;;;;;5053879;28;20033;-72
2023/07/15 04:22:47;;;;;;;3.22;0.75;;;14.70;99.90;;;;;;5053624;28;20482;-72
2023/07/15 04:25:14;;;;;;;2.85;0.65;;;14.70;99.90;;;;;;5053768;28;20125;-72
2023/07/15 04:27:40;;;;;;;0.70;0.70;;;14.70;99.90;;;;;;5052998;28;20057;-72
2023/07/15 04:30:07;;;;;;;1.17;0.57;;;14.70;99.90;;;;;;5053444;28;20064;-72
2023/07/15 04:32:33;;;;;;;0.75;0.60;;;14.70;99.90;;;;;;5051450;28;20128;-72
2023/07/15 04:35:00;;;;;;;2.17;0.75;;;14.70;99.90;;;;;;5053080;28;20063;-72
2023/07/15 04:37:26;;;;;;;1.55;0.70;;;14.70;99.90;;;;;;5053488;28;20029;-72
2023/07/15 04:39:52;;;;;;;1.92;0.98;;;14.70;99.90;;;;;;5052778;28;20037;-72
2023/07/15 04:42:18;;;;;;;2.45;0.93;;;14.80;99.90;;;;;;5053054;28;20390;-72
2023/07/15 04:44:43;;;;;;;1.50;0.57;;;14.80;99.90;;;;;;5052700;28;20021;-72
2023/07/15 04:47:09;;;;;;;1.70;0.55;;;14.80;99.90;;;;;;5053194;28;20359;-72
2023/07/15 04:49:35;;;;;;;0.40;0.40;;;14.80;99.90;;;;;;5052528;28;20041;-72
2023/07/15 04:52:01;;;;;;;2.25;0.50;;;14.90;99.90;;;;;;5052852;28;20071;-72
2023/07/15 04:54:27;;;;;;;1.13;0.65;;;14.90;99.90;;;;;;5052905;28;20025;-72
2023/07/15 04:56:53;;;;;;;1.73;0.60;;;14.90;99.90;;;;;;5052362;28;20033;-72
2023/07/15 04:59:19;;;;;;;1.08;0.50;;;15.00;99.90;;;;;;5052977;28;20033;-72
2023/07/15 05:01:44;;;;;;;0.90;0.60;;;14.90;99.90;;;;;;5052509;28;20347;-73
2023/07/15 05:04:10;;;;;;;1.60;0.63;;;14.90;99.90;;;;;;5053176;28;20029;-71
2023/07/15 05:06:37;;;;;;;3.90;0.70;;;15.00;99.90;;;;;;5052246;28;20021;-72
2023/07/15 05:09:04;;;;;;;0.98;0.45;;;14.90;99.90;;;;;;5052921;28;20421;-72
2023/07/15 05:11:30;;;;;;;0.50;0.47;;;14.90;99.90;;;;;;5052905;28;20323;-73
2023/07/15 05:13:56;;;;;;;1.00;0.50;;;15.00;99.90;;;;;;5051326;28;20040;-72
2023/07/15 05:16:22;;;;;;;1.73;0.60;;;15.00;99.90;;;;;;5052764;28;20474;-72
2023/07/15 05:18:48;;;;;;;3.53;0.80;;;15.00;99.90;;;;;;5052021;28;20028;-72
2023/07/15 05:21:14;;;;;;;1.50;0.52;;;15.10;99.90;;;;;;5052644;28;20017;-72
2023/07/15 05:23:40;;;;;;;0.90;0.60;;;15.20;99.90;;;;;;5051765;28;20044;-72
2023/07/15 05:26:06;;;;;;;1.00;0.60;;;15.50;99.90;;;;;;5052661;28;20036;-72
2023/07/15 05:28:32;;;;;;;1.75;0.40;;;15.70;99.90;;;;;;5052008;28;20091;-74
2023/07/15 05:31:02;;;;;;;1.83;0.80;;;15.80;99.90;;;;;;5052218;28;20090;-73
2023/07/15 05:33:28;;;;;;;2.92;0.50;;;15.90;99.90;;;;;;5052137;28;20390;-72
2023/07/15 05:35:54;;;;;;;2.42;0.95;;;16.00;99.90;;;;;;5050120;28;20032;-72
2023/07/15 05:38:24;;;;;;;0.60;0.60;;;16.00;99.90;;;;;;5052559;28;20021;-72
2023/07/15 05:40:51;;;;;;;1.30;0.45;;;16.00;99.90;;;;;;5051823;28;20054;-71
2023/07/15 05:43:18;;;;;;;0.75;0.43;;;16.00;99.90;;;;;;5052702;28;20039;-72
2023/07/15 05:45:44;;;;;;;1.13;0.50;;;15.90;99.90;;;;;;5052102;28;20159;-72
2023/07/15 05:48:10;;;;;;;1.65;0.40;;;16.00;99.90;;;;;;5052334;28;20088;-72
2023/07/15 05:50:37;;;;;;;2.15;0.88;;;16.10;99.90;;;;;;5051654;28;20021;-73
2023/07/15 05:53:06;;;;;;;2.50;0.70;;;16.20;99.90;;;;;;5051980;28;20040;-71
2023/07/15 05:55:35;;;;;;;1.10;0.45;;;16.20;99.90;;;;;;5052027;28;20028;-71
2023/07/15 05:58:01;;;;;;;3.50;0.60;;;16.10;99.90;;;;;;5051895;28;20029;-71
2023/07/15 06:00:30;;;;;;;1.50;0.70;;;16.00;99.90;;;;;;5051874;28;20029;-72
2023/07/15 06:02:56;;;;;;;1.60;0.60;;;15.80;99.90;;;;;;5051394;28;20310;-72
2023/07/15 06:05:21;;;;;;;2.85;0.40;;;15.80;99.90;;;;;;5051810;28;20423;-72
2023/07/15 06:07:48;;;;;;;2.40;0.50;;;15.80;99.90;;;;;;5051268;28;20035;-72
2023/07/15 06:10:14;;;;;;;0.50;0.40;;;15.70;99.90;;;;;;5051882;28;20036;-71
2023/07/15 06:12:41;;;;;;;0.63;0.50;;;15.70;99.90;;;;;;5051303;28;20029;-72
2023/07/15 06:15:07;;;;;;;2.50;0.60;;;15.80;99.90;;;;;;5051918;28;20087;-71
2023/07/15 06:17:33;;;;;;;0.77;0.40;;;15.80;99.90;;;;;;5052335;28;20032;-72
2023/07/15 06:19:59;;;;;;;4.93;0.45;;;15.80;99.90;;;;;;5051188;28;20104;-72
2023/07/15 06:22:24;;;;;;;2.67;0.80;;;15.90;99.90;;;;;;5051586;28;20017;-72
2023/07/15 06:24:50;;;;;;;1.05;0.50;;;15.90;99.90;;;;;;5050915;28;20021;-72
2023/07/15 06:27:16;;;;;;;4.97;0.77;;;16.10;99.90;;;;;;5051390;28;20049;-72
2023/07/15 06:29:42;;;;;;;0.73;0.63;;;16.20;99.90;;;;;;5050938;28;20482;-73
2023/07/15 06:32:08;;;;;;;1.70;0.77;;;16.40;99.90;;;;;;5051247;28;20474;-72
2023/07/15 06:34:33;;;;;;;0.68;0.68;;;16.60;99.90;;;;;;5051460;28;20021;-72
2023/07/15 06:36:59;;;;;;;1.80;0.77;;;16.80;99.90;;;;;;5050878;28;20039;-71
2023/07/15 06:39:25;;;;;;;0.98;0.70;;;17.10;99.90;;;;;;5051363;28;20067;-72
2023/07/15 06:41:51;;;;;;;1.08;0.50;;;17.30;99.90;;;;;;5050750;28;20336;-71
2023/07/15 06:44:17;;;;;;;1.15;0.65;;;17.50;99.90;;;;;;5051273;28;20473;-72
2023/07/15 06:46:43;;;;;;;2.05;0.75;;;17.50;99.90;;;;;;5050427;28;20045;-72
2023/07/15 06:49:08;;;;;;;1.25;0.65;;;17.50;99.90;;;;;;5051287;28;20028;-72
2023/07/15 06:51:34;;;;;;;2.55;0.50;;;17.40;99.90;;;;;;5051068;28;20040;-72
2023/07/15 06:54:01;;;;;;;1.13;0.50;;;17.30;99.90;;;;;;5049082;28;20043;-72
2023/07/15 06:56:27;;;;;;;1.42;0.47;;;17.30;99.90;;;;;;5050849;28;20021;-72
2023/07/15 06:58:53;;;;;;;1.88;0.40;;;17.20;99.90;;;;;;5050393;28;20063;-73
2023/07/15 07:01:19;;;;;;;1.35;0.55;;;17.10;99.90;;;;;;5050846;28;20514;-74
2023/07/15 07:03:45;;;;;;;2.38;0.50;;;17.00;99.90;;;;;;5050465;28;20108;-73
2023/07/15 07:06:11;;;;;;;1.35;0.50;;;16.70;99.90;;;;;;5050842;28;20375;-74
2023/07/15 07:08:36;;;;;;;1.70;0.32;;;16.60;99.90;;;;;;5050854;28;20078;-74
2023/07/15 07:11:02;;;;;;;2.25;0.52;;;16.70;99.90;;;;;;5050273;28;20037;-74
2023/07/15 07:13:28;;;;;;;0.40;0.40;;;16.60;99.90;;;;;;5050745;28;20044;-73
2023/07/15 07:15:58;;;;;;;1.20;0.52;;;16.50;99.90;;;;;;5050128;28;20471;-74
2023/07/15 07:18:24;;;;;;;1.38;0.40;;;16.40;99.90;;;;;;5051496;28;20340;-74
2023/07/15 07:20:56;;;;;;;0.73;0.35;;;16.30;99.90;;;;;;5050424;28;20075;-74
2023/07/15 07:23:22;;;;;;;2.33;0.50;;;16.30;99.90;;;;;;5051096;28;20033;-74
2023/07/15 07:25:49;;;;;;;0.88;0.60;;;16.10;99.90;;;;;;5050303;28;20021;-74
2023/07/15 07:28:15;;;;;;;3.13;0.40;;;16.00;99.90;;;;;;5050565;28;20053;-74
2023/07/15 07:30:41;;;;;;;1.58;0.55;;;15.90;99.90;;;;;;5049992;28;20055;-76
2023/07/15 07:33:07;;;;;;;0.38;0.30;;;15.80;99.90;;;;;;5050501;28;20029;-73
2023/07/15 07:35:32;;;;;;;0.30;0.28;;;15.70;99.90;;;;;;5050214;28;20330;-74
2023/07/15 07:37:58;;;;;;;0.20;0.20;;;15.60;99.90;;;;;;5049557;28;20433;-74
2023/07/15 07:40:25;;;;;;;1.00;0.40;;;15.50;99.90;;;;;;5050190;28;20551;-74
2023/07/15 07:42:51;;;;;;;1.08;0.50;;;15.40;99.90;;;;;;5049442;28;20406;-74
2023/07/15 07:45:17;;;;;;;2.05;0.73;;;15.30;99.90;;;;;;5050197;28;20028;-74
2023/07/15 07:47:43;;;;;;;1.15;0.45;;;15.30;99.90;;;;;;5049169;28;20032;-77
2023/07/15 07:50:10;;;;;;;2.65;0.93;;;15.20;99.90;;;;;;5049148;28;20233;-77
2023/07/15 07:52:35;;;;;;;3.90;0.77;;;15.00;99.90;;;;;;5048650;28;20056;-76
2023/07/15 07:55:03;;;;;;;1.10;0.80;;;14.90;99.90;;;;;;5050327;28;20025;-76
2023/07/15 07:57:29;;;;;;;1.50;0.40;;;14.80;99.90;;;;;;5050573;28;20520;-75
2023/07/15 07:59:54;;;;;;;0.63;0.30;;;14.70;99.90;;;;;;5050294;28;20029;-77
2023/07/15 08:02:20;;;;;;;1.20;0.50;;;14.70;99.90;;;;;;5050297;28;20386;-77
2023/07/15 08:04:48;;;;;;;1.75;0.30;;;14.60;99.90;;;;;;5049704;28;20029;-78
2023/07/15 08:07:14;;;;;;;2.83;0.40;;;14.60;99.90;;;;;;5049824;28;20103;-77
2023/07/15 08:09:40;;;;;;;1.05;0.43;;;14.60;99.90;;;;;;5050040;28;20530;-77
2023/07/15 08:12:08;;;;;;;1.80;0.50;;;14.50;99.90;;;;;;5049367;28;20026;-75
2023/07/15 08:14:34;;;;;;;1.13;0.45;;;14.50;99.90;;;;;;5050262;28;20044;-73
2023/07/15 08:16:59;;;;;;;0.65;0.43;;;14.50;99.90;;;;;;5049745;28;20374;-74
2023/07/15 08:19:26;;;;;;;2.15;0.70;;;14.40;99.90;;;;;;5050199;28;20029;-76
2023/07/15 08:21:51;;;;;;;3.83;0.60;;;14.40;99.90;;;;;;5049344;28;20030;-74
2023/07/15 08:24:17;;;;;;;1.48;0.80;;;14.40;99.90;;;;;;5049720;28;20032;-73
2023/07/15 08:26:43;;;;;;;1.25;0.60;;;14.30;99.90;;;;;;5050039;28;20391;-80
2023/07/15 08:29:08;;;;;;;0.68;0.40;;;14.20;99.90;;;;;;5049534;28;20081;-77
2023/07/15 08:31:34;;;;;;;0.90;0.55;;;14.20;99.90;;;;;;5050042;28;20481;-76
2023/07/15 08:34:18;;;;;;;3.53;1.08;;;14.20;99.90;;;;;;5050049;28;20025;-77
2023/07/15 08:36:44;;;;;;;4.10;0.52;;;14.20;99.90;;;;;;5049994;28;20079;-80
2023/07/15 08:39:10;;;;;;;3.15;0.55;;;14.20;99.90;;;;;;5049773;28;20029;-76
2023/07/15 08:41:37;;;;;;;2.35;0.50;;;14.20;99.90;;;;;;5049782;28;20021;-75
2023/07/15 08:44:03;;;;;;;1.92;0.52;;;14.20;99.90;;;;;;5049442;28;20037;-75
2023/07/15 08:46:30;;;;;;;2.67;0.65;;;14.20;99.90;;;;;;5050226;28;20048;-76
2023/07/15 08:48:57;;;;;;;1.40;0.40;;;14.20;99.90;;;;;;5051250;28;20025;-76
2023/07/15 08:51:44;;;;;;;0.88;0.50;;;14.20;99.90;;;;;;5053460;28;20065;-75
2023/07/15 08:54:10;;;;;;;2.72;0.55;;;14.30;99.90;;;;;;5053100;28;20108;-78
2023/07/15 08:56:37;;;;;;;1.00;0.40;;;14.30;99.90;;;;;;5053397;28;20021;-76
2023/07/15 08:59:06;;;;;;;0.95;0.30;;;14.40;99.90;;;;;;5052977;28;20033;-76
2023/07/15 09:01:35;;;;;;;1.88;0.70;;;14.40;99.90;;;;;;5053598;28;20029;-76
2023/07/15 09:04:01;;;;;;;1.10;0.32;;;14.40;99.90;;;;;;5053028;28;20221;-76
2023/07/15 09:06:28;;;;;;;1.05;0.45;;;14.50;99.90;;;;;;5053251;28;20104;-75
2023/07/15 09:08:54;;;;;;;1.25;0.30;;;14.50;99.90;;;;;;5052654;28;20039;-76
2023/07/15 09:11:20;;;;;;;0.60;0.32;;;14.50;99.90;;;;;;5052931;28;20504;-75
2023/07/15 09:13:46;;;;;;;0.30;0.30;;;14.60;99.90;;;;;;5052949;28;20032;-80
2023/07/15 09:16:13;;;;;;;0.52;0.50;;;14.60;99.90;;;;;;5052993;28;20091;-77
2023/07/15 09:18:40;;;;;;;1.02;0.40;;;14.60;99.90;;;;;;5053142;28;20024;-75
2023/07/15 09:21:14;;;;;;;0.60;0.30;;;14.70;99.90;;;;;;5052164;28;20430;-76
2023/07/15 09:23:43;;;;;;;1.10;0.30;;;14.80;99.90;;;;;;5052788;28;20025;-77
2023/07/15 09:26:09;;;;;;;0.88;0.35;;;14.70;99.90;;;;;;5050914;28;20029;-76
2023/07/15 09:28:36;;;;;;;0.35;0.30;;;14.70;99.90;;;;;;5051081;28;20398;-76
2023/07/15 09:31:02;;;;;;;1.40;0.30;;;14.70;99.90;;;;;;5052076;28;20033;-76
2023/07/15 09:33:38;;;;;;;0.77;0.22;;;14.80;99.90;;;;;;5052791;28;20063;-75
2023/07/15 09:36:04;;;;;;;3.10;0.40;;;14.80;99.90;;;;;;5052044;28;20060;-76
2023/07/15 09:38:39;;;;;;;2.08;0.30;;;14.80;99.90;;;;;;5052276;28;20032;-75
2023/07/15 09:41:09;;;;;;;0.43;0.25;;;14.80;99.90;;;;;;5051908;28;20116;-75
2023/07/15 09:43:48;;;;;;;0.35;0.30;;;14.80;99.90;;;;;;5052407;28;20029;-76
2023/07/15 09:46:16;;;;;;;0.73;0.43;;;14.90;99.90;;;;;;5050441;28;20434;-77
2023/07/15 09:48:47;;;;;;;1.20;0.32;;;15.00;99.90;;;;;;5052030;28;20471;-76
2023/07/15 09:51:14;;;;;;;1.17;0.65;;;15.10;99.90;;;;;;5051439;28;20452;-76
2023/07/15 09:53:49;;;;;;;0.60;0.45;;;15.10;99.90;;;;;;5052020;28;20033;-75
2023/07/15 09:56:21;;;;;;;1.30;0.32;;;15.20;99.90;;;;;;5051993;28;20032;-74
2023/07/15 09:58:50;;;;;;;1.13;0.40;;;15.30;99.90;;;;;;5051276;28;20159;-76
2023/07/15 10:01:43;;;;;;;2.58;0.40;;;15.40;99.90;;;;;;5052213;28;20029;-76
2023/07/15 10:04:38;;;;;;;0.82;0.50;;;15.40;99.90;;;;;;5050938;28;20029;-76
2023/07/15 10:07:04;;;;;;;0.77;0.45;;;15.60;99.90;;;;;;5046937;28;20041;-77
2023/07/15 10:09:31;;;;;;;0.80;0.30;;;15.70;99.90;;;;;;5051231;28;20041;-77
2023/07/15 10:11:59;;;;;;;1.80;0.40;;;15.70;99.90;;;;;;5051400;28;20139;-77
2023/07/15 10:14:27;;;;;;;1.02;0.52;;;15.80;99.90;;;;;;5052110;28;20081;-77
2023/07/15 10:17:12;;;;;;;0.85;0.40;;;15.80;99.90;;;;;;5050926;28;20043;-78
2023/07/15 10:19:39;;;;;;;0.25;0.25;;;15.70;99.90;;;;;;5052165;28;20141;-77
2023/07/15 10:22:05;;;;;;;0.43;0.40;;;15.70;99.90;;;;;;5051629;28;20031;-76
2023/07/15 10:24:33;;;;;;;1.67;0.50;;;15.90;99.90;;;;;;5052039;28;20384;-77
2023/07/15 10:27:01;;;;;;;0.57;0.40;;;16.00;99.90;;;;;;5051518;28;20025;-78
2023/07/15 10:29:30;;;;;;;0.47;0.35;;;16.10;99.90;;;;;;5051888;28;20036;-77
2023/07/15 10:32:08;;;;;;;1.60;0.60;;;16.10;99.90;;;;;;5051528;28;20040;-77
2023/07/15 10:34:46;;;;;;;1.92;0.60;;;16.20;99.90;;;;;;5052234;28;20036;-77
2023/07/15 10:37:14;;;;;;;1.30;0.60;;;16.20;99.90;;;;;;5050326;28;20867;-77
2023/07/15 10:39:40;;;;;;;1.05;0.30;;;16.10;99.90;;;;;;5052094;28;20064;-77
2023/07/15 10:42:13;;;;;;;0.70;0.30;;;16.10;99.90;;;;;;5051540;28;20108;-77
2023/07/15 10:44:40;;;;;;;0.30;0.20;;;16.10;99.90;;;;;;5051632;28;20359;-77
2023/07/15 10:47:07;;;;;;;0.82;0.45;;;16.00;99.90;;;;;;5051724;28;20048;-75
2023/07/15 10:49:33;;;;;;;1.30;0.63;;;16.00;99.90;;;;;;5051461;28;20037;-75
2023/07/15 10:51:59;;;;;;;2.95;0.65;;;16.10;99.90;;;;;;5050243;28;20135;-76
2023/07/15 10:54:35;;;;;;;1.80;0.68;;;16.10;99.90;;;;;;5049217;28;20025;-74
2023/07/15 10:57:12;;;;;;;0.55;0.50;;;15.90;99.90;;;;;;5050169;28;20327;-74
2023/07/15 10:59:39;;;;;;;1.25;0.63;;;16.00;99.90;;;;;;5050648;28;20031;-74
2023/07/15 11:02:06;;;;;;;0.95;0.50;;;16.10;99.90;;;;;;5050036;28;20029;-75
2023/07/15 11:04:32;;;;;;;1.08;0.50;;;16.20;99.90;;;;;;5050563;28;20111;-75
2023/07/15 11:07:03;;;;;;;1.00;0.45;;;16.10;99.90;;;;;;5049965;28;20029;-73
2023/07/15 11:09:29;;;;;;;1.00;0.50;;;16.10;99.90;;;;;;5050545;28;20056;-75
2023/07/15 11:11:55;;;;;;;1.05;0.45;;;16.00;99.90;;;;;;5048805;28;20021;-75
2023/07/15 11:14:26;;;;;;;0.85;0.40;;;16.00;99.90;;;;;;5050100;28;20021;-75
2023/07/15 11:17:03;;;;;;;1.27;0.50;;;15.90;99.90;;;;;;5050019;28;20120;-78
2023/07/15 11:19:29;;;;;;;0.68;0.60;;;16.00;99.90;;;;;;5050238;28;20033;-76
2023/07/15 11:21:57;;;;;;;1.58;0.60;;;15.90;99.90;;;;;;5049568;28;20056;-75
2023/07/15 11:24:25;;;;;;;2.22;0.60;;;16.00;99.90;;;;;;5049844;28;20021;-74
2023/07/15 11:26:51;;;;;;;0.47;0.40;;;16.00;99.90;;;;;;5049639;28;20090;-78
2023/07/15 11:29:22;;;;;;;2.42;0.75;;;16.10;99.90;;;;;;5050254;28;20049;-75
2023/07/15 11:31:51;;;;;;;0.63;0.60;;;16.10;99.90;;;;;;5050066;28;20056;-75
2023/07/15 11:34:21;;;;;;;0.65;0.57;;;16.10;99.90;;;;;;5050470;28;20023;-75
2023/07/15 11:36:49;;;;;;;1.10;0.47;;;16.00;99.90;;;;;;5050582;28;20032;-73
2023/07/15 11:39:15;;;;;;;0.85;0.50;;;16.10;99.90;;;;;;5049927;28;20364;-74
2023/07/15 11:41:42;;;;;;;2.13;0.80;;;16.10;99.90;;;;;;5050038;28;20059;-74
2023/07/15 11:44:13;;;;;;;1.40;0.60;;;16.10;99.90;;;;;;5049541;28;20116;-74
2023/07/15 11:46:41;;;;;;;0.90;0.60;;;16.20;99.90;;;;;;5050503;28;20127;-73
2023/07/15 11:49:07;;;;;;;0.95;0.60;;;16.30;99.90;;;;;;5050133;28;20463;-73
2023/07/15 11:51:36;;;;;;;2.40;0.60;;;16.30;99.90;;;;;;5050630;28;20033;-74
2023/07/15 11:54:07;;;;;;;1.52;0.63;;;16.40;99.90;;;;;;5050016;28;20104;-74
2023/07/15 11:56:43;;;;;;;2.80;0.45;;;16.30;99.90;;;;;;5048955;28;20026;-74
2023/07/15 11:59:11;;;;;;;2.92;1.05;;;16.40;99.90;;;;;;5049619;28;20044;-77
2023/07/15 12:01:38;;;;;;;2.78;0.90;;;16.30;99.90;;;;;;5050635;28;20357;-75
2023/07/15 12:04:14;;;;;;;1.35;0.52;;;16.30;99.90;;;;;;5049966;28;20051;-76
2023/07/15 12:06:52;;;;;;;2.38;0.98;;;16.20;99.90;;;;;;5050461;28;20335;-77
2023/07/15 12:09:19;;;;;;;2.15;0.77;;;16.20;99.90;;;;;;5050128;28;20079;-75
2023/07/15 12:11:46;;;;;;;1.90;0.93;;;16.00;99.90;;;;;;5050922;28;20035;-76
2023/07/15 12:14:15;;;;;;;2.45;1.10;;;15.80;99.90;;;;;;5049678;28;20379;-75
2023/07/15 12:16:42;;;;;;;1.63;1.10;;;15.80;99.90;;;;;;5049921;28;20021;-75
2023/07/15 12:19:12;;;;;;;2.83;0.90;;;15.70;99.90;;;;;;5049643;28;20515;-75
2023/07/15 12:21:37;;;;;;;1.58;0.77;;;15.60;99.90;;;;;;5049938;28;20025;-76
2023/07/15 12:24:03;;;;;;;3.63;0.95;;;15.60;99.90;;;;;;5053208;28;20029;-74
2023/07/15 12:26:29;;;;;;;2.10;0.98;;;15.60;99.90;;;;;;5054054;28;20053;-74
2023/07/15 12:28:56;;;;;;;3.05;1.35;;;15.50;99.90;;;;;;5053374;28;20437;-83
2023/07/15 12:31:22;;;;;;;2.80;1.48;;;15.40;99.90;;;;;;5053774;28;20037;-77
2023/07/15 12:33:47;;;;;;;5.50;1.40;;;15.40;99.90;;;;;;5054155;28;20025;-78
2023/07/15 12:36:15;;;;;;;3.42;1.40;;;15.40;99.90;;;;;;5053637;28;20032;-80
2023/07/15 12:38:41;;;;;;;5.82;0.95;;;15.40;99.90;;;;;;5054421;28;20112;-80
2023/07/15 12:41:08;;;;;;;6.03;1.50;;;15.40;99.90;;;;;;5053439;28;20029;-78
2023/07/15 12:43:34;;;;;;;3.78;1.20;;;15.20;99.90;;;;;;5054001;28;20078;-75
2023/07/15 12:46:01;;;;;;;4.43;1.15;;;15.30;99.90;;;;;;5053248;28;20028;-77
2023/07/15 12:48:27;;;;;;;2.75;1.50;;;15.20;99.90;;;;;;5053981;28;20025;-80